Weather reports worldwide

Advertisment
Bala, United Kingdom (3409): temperature & dewpoint: 13.01.2019 09:00:00 - 19.01.2019 09:00:00 (GMT)Bala, United Kingdom (3409): temperature -20cm & temperature -100cm: 13.01.2019 09:00:00 - 19.01.2019 09:00:00 (GMT)Bala, United Kingdom (3409): wind speed & gusts: 13.01.2019 09:00:00 - 19.01.2019 09:00:00 (GMT)Bala, United Kingdom (3409): wind direction: 13.01.2019 09:00:00 - 19.01.2019 09:00:00 (GMT)Bala, United Kingdom (3409): reduced air pressure: 13.01.2019 09:00:00 - 19.01.2019 09:00:00 (GMT)Bala, United Kingdom (3409): sunshine duration: 13.01.2019 09:00:00 - 19.01.2019 09:00:00 (GMT)Bala, United Kingdom (3409): precipitation: 13.01.2019 09:00:00 - 19.01.2019 09:00:00 (GMT)
Date & Time tt [°C] td [°C] tt -20cm [°C] tt -100cm [°C] ff [km/h] ff [kn] fx [km/h] fx [kn] dd ppp [hPa] sd [min] rr [mm]
19.01.2019 09:00:00 3,8 2,5 - - 5 3 - - NE 1006,2 0 0,2
19.01.2019 08:00:00 3,6 2,5 - - 5 3 - - NNE 1005,8 0 0,2
19.01.2019 07:00:00 3,5 2,1 - - 5 3 - - NE 1005,6 0 0,2
19.01.2019 06:00:00 3,3 2,0 - - 2 1 - - NNE 1005,6 0 0,0
19.01.2019 05:00:00 3,1 2,1 - - 4 2 - - NE 1005,8 0 0,2
19.01.2019 04:00:00 3,0 1,8 - - 4 2 - - NNE 1006,1 0 0,2
19.01.2019 03:00:00 2,9 1,5 - - 4 2 - - NNE 1006,6 0 0,0
19.01.2019 02:00:00 3,0 1,1 - - 5 3 - - S 1006,8 0 0,0
19.01.2019 01:00:00 3,1 1,1 - - 4 2 - - ENE 1007,1 0 0,0
19.01.2019 00:00:00 3,2 1,5 - - 5 3 - - N 1007,4 - 0,0
18.01.2019 23:00:00 3,1 1,3 - - 5 3 - - N 1007,5 0 0,0
18.01.2019 22:00:00 2,8 1,4 - - 4 2 - - NW 1007,7 0 0,0
18.01.2019 21:00:00 2,6 1,0 - - 4 2 - - NE 1007,9 0 0,2
18.01.2019 20:00:00 2,7 1,0 - - 4 2 - - NNW 1008,1 0 0,0
18.01.2019 19:00:00 2,6 0,9 - - 4 2 - - N 1008,1 0 0,2
18.01.2019 18:00:00 2,9 1,1 - - 5 3 - - NW 1008,5 0 0,2
18.01.2019 17:00:00 3,2 1,1 - - 8 4 - - SE 1008,4 0 0,2
18.01.2019 16:00:00 3,1 1,2 - - 5 3 - - WSW 1008,7 0 0,4
18.01.2019 15:00:00 2,9 0,7 - - 5 3 - - WNW 1008,8 0 0,4
18.01.2019 14:00:00 2,8 1,2 - - 4 2 - - NE 1009,5 0 0,2
18.01.2019 13:00:00 2,9 0,2 - - 8 4 - - ENE 1009,9 6 0,2
18.01.2019 12:00:00 2,2 0,2 - - 5 3 - - ESE 1010,6 0 1,0
18.01.2019 11:00:00 1,7 0,0 - - 5 3 - - S 1011,6 0 1,2
18.01.2019 10:00:00 1,6 -1,1 - - 5 3 - - S 1012,4 0 0,0
18.01.2019 09:00:00 2,2 -2,9 5,7 7,0 5 3 - - NE 1012,7 0 0,0
18.01.2019 08:00:00 0,6 -2,9 - - 4 2 - - NNE 1012,9 0 0,0
18.01.2019 07:00:00 1,1 -3,3 - - 8 4 - - SSW 1013,7 0 0,0
18.01.2019 06:00:00 1,1 -3,2 - - 4 2 - - N 1014,1 0 0,0
18.01.2019 05:00:00 1,4 -3,3 - - 9 5 - - SE 1014,9 0 0,0
18.01.2019 04:00:00 -0,5 -1,7 - - 2 1 - - WNW 1015,7 0 0,0
18.01.2019 03:00:00 -1,7 -2,4 - - 4 2 - - E 1016,6 0 0,0
18.01.2019 02:00:00 -1,5 -2,3 - - 0 0 - - N 1017,2 0 0,0
18.01.2019 01:00:00 -1,7 -2,2 - - 2 1 - - WNW 1017,8 0 0,0
18.01.2019 00:00:00 -2,0 -2,6 - - 2 1 - - NNW 1018,7 - 0,0
17.01.2019 23:00:00 -1,9 -2,5 - - 0 0 - - N 1018,6 0 0,0
17.01.2019 22:00:00 -1,8 -2,7 - - 2 1 - - NE 1019,0 0 0,0
17.01.2019 21:00:00 -1,4 -2,6 - - 2 1 - - ENE 1019,3 0 0,0
17.01.2019 20:00:00 -1,0 -2,4 - - 4 2 - - ESE 1019,2 0 0,0
17.01.2019 19:00:00 -0,7 -2,3 - - 4 2 - - SSE 1019,0 0 0,0
17.01.2019 18:00:00 -0,9 -3,0 - - 2 1 - - N 1018,6 0 0,0
17.01.2019 17:00:00 0,4 -2,7 - - 2 1 - - S 1018,0 0 0,0
17.01.2019 16:00:00 2,0 -2,2 - - 0 0 - - N 1017,6 6 0,0
17.01.2019 15:00:00 3,5 -2,7 - - 5 3 - - NNE 1016,8 54 0,0
17.01.2019 14:00:00 4,5 -2,7 - - 9 5 - - NW 1016,6 54 0,0
17.01.2019 13:00:00 3,7 -2,3 - - 4 2 - - NNE 1016,5 36 0,0
17.01.2019 12:00:00 4,4 -1,3 - - 4 2 - - WNW 1015,7 30 0,0
17.01.2019 11:00:00 3,1 -2,4 - - 5 3 - - W 1015,5 42 0,0
17.01.2019 10:00:00 -0,1 -0,9 - - 4 2 - - W 1014,9 6 0,0
17.01.2019 09:00:00 0,3 -1,2 6,5 7,0 8 4 - - WSW 1013,7 0 0,0
17.01.2019 08:00:00 0,8 -1,9 - - 9 5 - - WSW 1012,5 0 0,0
17.01.2019 07:00:00 -0,3 -3,1 - - 2 1 - - S 1011,5 0 0,0
17.01.2019 06:00:00 1,4 -2,3 - - 4 2 - - NNE 1010,4 0 0,2
17.01.2019 05:00:00 2,7 0,6 - - 8 4 - - N 1008,7 0 1,2
17.01.2019 04:00:00 2,9 0,9 - - 9 5 - - WSW 1006,9 0 0,8
17.01.2019 03:00:00 3,1 1,2 - - 9 5 - - WSW 1005,8 0 0,0
17.01.2019 02:00:00 2,5 1,3 - - 9 5 - - WSW 1005,3 0 0,2
17.01.2019 01:00:00 2,1 1,4 - - 8 4 - - W 1005,0 0 0,0
17.01.2019 00:00:00 1,9 1,0 - - 8 4 - - WSW 1004,3 - 0,4
16.01.2019 23:00:00 1,9 1,1 - - 9 5 - - WSW 1003,5 0 0,8
16.01.2019 22:00:00 1,6 0,7 - - 2 1 - - N 1002,7 0 0,0
16.01.2019 21:00:00 2,1 0,9 - - 4 2 - - SSW 1002,1 0 2,2
16.01.2019 20:00:00 2,4 1,7 - - 4 2 - - NE 1001,4 0 0,0
16.01.2019 19:00:00 2,9 1,6 - - 4 2 - - WSW 1001,1 0 0,4
16.01.2019 18:00:00 3,8 1,9 - - 13 7 - - SW 1001,2 0 0,2
16.01.2019 17:00:00 4,1 1,2 - - 9 5 - - WSW 1001,3 0 0,0
16.01.2019 16:00:00 5,0 1,5 - - 8 4 - - SW 1001,8 24 0,0
16.01.2019 15:00:00 6,7 2,6 - - 15 8 - - WSW 1001,7 42 0,0
16.01.2019 14:00:00 6,0 2,4 - - 11 6 - - W 1001,9 0 0,0
16.01.2019 13:00:00 4,7 2,6 - - 13 7 - - WSW 1002,3 0 0,0
16.01.2019 12:00:00 5,1 2,9 - - 15 8 - - WSW 1002,6 0 0,8
16.01.2019 11:00:00 5,3 3,5 - - 18 10 - - WSW 1003,0 0 1,2
16.01.2019 10:00:00 5,2 3,8 - - 13 7 - - WSW 1002,9 0 1,8
16.01.2019 09:00:00 6,1 4,7 6,7 7,0 8 4 - - WSW 1002,6 0 0,8
16.01.2019 08:00:00 7,4 6,2 - - 18 10 - - W 1001,8 0 2,0
16.01.2019 07:00:00 7,6 6,2 - - 24 13 - - WSW 1001,7 0 0,4
16.01.2019 06:00:00 8,1 6,5 - - 28 15 48 26 WSW 1002,2 0 0,6
16.01.2019 05:00:00 8,6 5,9 - - 31 17 59 32 SW 1003,1 0 0,0
16.01.2019 04:00:00 8,1 6,4 - - 28 15 46 25 SW 1004,3 0 0,0
16.01.2019 03:00:00 8,0 6,1 - - 22 12 - - SW 1005,4 0 0,2
16.01.2019 02:00:00 8,4 5,8 - - 22 12 - - SW 1006,4 0 0,0
16.01.2019 01:00:00 8,3 5,9 - - 18 10 - - SW 1007,6 0 0,0
16.01.2019 00:00:00 8,0 6,8 - - 24 13 - - WSW 1008,3 - 0,2
15.01.2019 23:00:00 7,8 6,6 - - 22 12 - - WSW 1009,2 0 0,0
15.01.2019 22:00:00 7,9 6,2 - - 26 14 - - WSW 1010,2 0 0,0
15.01.2019 21:00:00 8,3 5,6 - - 28 15 48 26 SW 1010,9 0 0,0
15.01.2019 20:00:00 7,8 6,3 - - 28 15 50 27 WSW 1011,6 0 0,4
15.01.2019 19:00:00 7,7 6,4 - - 28 15 - - WSW 1012,2 0 0,2
15.01.2019 18:00:00 7,7 6,1 - - 22 12 - - WSW 1013,1 0 0,2
15.01.2019 17:00:00 7,7 6,5 - - 24 13 - - WSW 1013,6 0 0,0
15.01.2019 16:00:00 7,7 6,7 - - 21 11 - - WSW 1014,3 0 0,0
15.01.2019 15:00:00 8,4 6,1 - - 28 15 - - W 1014,7 0 0,0
15.01.2019 14:00:00 8,2 6,2 - - 29 16 46 25 WSW 1015,1 6 0,2
15.01.2019 13:00:00 8,3 5,9 - - 28 15 - - W 1015,8 0 0,0
15.01.2019 12:00:00 8,4 4,6 - - 18 10 - - WSW 1017,0 0 0,0
15.01.2019 11:00:00 8,4 4,9 - - 18 10 - - W 1017,9 0 0,0
15.01.2019 10:00:00 8,2 5,2 - - 15 8 - - WSW 1018,3 0 0,0
15.01.2019 09:00:00 8,0 5,1 6,5 6,9 18 10 - - WSW 1018,3 0 0,0
15.01.2019 08:00:00 7,6 5,1 - - 15 8 - - WSW 1018,3 0 0,0
15.01.2019 07:00:00 8,2 4,9 - - 16 9 - - WSW 1018,5 0 0,0
15.01.2019 06:00:00 7,8 5,2 - - 11 6 - - WSW 1018,8 0 0,0
15.01.2019 05:00:00 7,7 5,0 - - 16 9 - - W 1019,1 0 0,0
15.01.2019 04:00:00 7,8 5,2 - - 21 11 - - W 1019,4 0 0,0
15.01.2019 03:00:00 8,0 4,7 - - 21 11 - - W 1020,0 0 0,0
15.01.2019 02:00:00 7,5 5,1 - - 18 10 - - W 1020,5 0 0,0
15.01.2019 01:00:00 7,1 5,5 - - 21 11 - - W 1021,2 0 0,0
15.01.2019 00:00:00 6,8 5,4 - - 13 7 - - W 1021,7 - 0,0
14.01.2019 23:00:00 5,7 5,0 - - 13 7 - - WSW 1022,4 0 0,0
14.01.2019 22:00:00 5,9 3,8 - - 16 9 - - WSW 1022,7 0 0,0
14.01.2019 21:00:00 5,8 2,4 - - 13 7 - - W 1022,6 0 0,0
14.01.2019 20:00:00 6,3 2,2 - - 16 9 - - WSW 1022,9 0 0,0
14.01.2019 19:00:00 6,3 1,8 - - 18 10 - - WSW 1022,7 0 0,0
14.01.2019 18:00:00 6,6 2,3 - - 18 10 - - WSW 1022,7 0 0,0
14.01.2019 17:00:00 6,6 3,3 - - 13 7 - - W 1023,0 0 0,0
14.01.2019 16:00:00 6,8 2,6 - - 9 5 - - W 1023,1 0 0,0
14.01.2019 15:00:00 7,4 3,2 - - 13 7 - - W 1022,9 12 0,0
14.01.2019 14:00:00 7,8 2,4 - - 13 7 - - W 1022,7 6 0,0
14.01.2019 13:00:00 7,3 3,1 - - 8 4 - - W 1023,1 0 0,0
14.01.2019 12:00:00 7,7 2,1 - - 8 4 - - W 1022,4 0 0,0
14.01.2019 11:00:00 7,1 2,2 - - 5 3 - - W 1023,0 0 0,0
14.01.2019 10:00:00 6,9 1,8 - - 11 6 - - WSW 1022,5 0 0,0
14.01.2019 09:00:00 6,1 1,5 6,7 6,9 9 5 - - W 1021,9 0 0,0
14.01.2019 08:00:00 6,4 1,7 - - 13 7 - - WSW 1021,2 0 0,0
14.01.2019 07:00:00 6,2 2,1 - - 9 5 - - WSW 1020,8 0 0,0
14.01.2019 06:00:00 5,8 1,9 - - 8 4 - - W 1020,6 0 0,0
14.01.2019 05:00:00 6,1 1,7 - - 9 5 - - W 1020,1 0 0,0
14.01.2019 04:00:00 6,9 2,8 - - 15 8 - - WSW 1019,8 0 0,0
14.01.2019 03:00:00 7,3 2,1 - - 13 7 - - W 1019,5 0 0,0
14.01.2019 02:00:00 7,4 2,0 - - 13 7 - - W 1018,8 0 0,0
14.01.2019 01:00:00 7,5 2,1 - - 13 7 - - W 1018,3 0 0,0
14.01.2019 00:00:00 7,6 1,9 - - 11 6 - - W 1018,1 - 0,0
13.01.2019 23:00:00 7,7 2,2 - - 15 8 - - W 1017,4 0 0,0
13.01.2019 22:00:00 8,1 1,9 - - 15 8 - - W 1016,7 0 0,0
13.01.2019 21:00:00 8,2 1,8 - - 16 9 - - W 1016,2 0 0,0
13.01.2019 20:00:00 8,4 2,0 - - 16 9 52 28 W 1015,6 0 0,0
13.01.2019 19:00:00 8,6 2,7 - - 22 12 - - W 1015,2 0 0,0
13.01.2019 18:00:00 9,0 2,6 - - 22 12 50 27 W 1014,3 0 0,0
13.01.2019 17:00:00 9,3 4,0 - - 24 13 57 31 W 1013,9 0 0,0
13.01.2019 16:00:00 9,7 6,0 - - 26 14 54 29 W 1013,5 0 0,2
13.01.2019 15:00:00 9,7 7,3 - - 22 12 48 26 W 1013,9 0 0,2
13.01.2019 14:00:00 10,7 5,9 - - 29 16 57 31 W 1013,5 0 0,0
13.01.2019 13:00:00 10,3 6,6 - - 29 16 54 29 W 1013,7 0 0,0
13.01.2019 12:00:00 10,3 7,4 - - 28 15 - - WSW 1013,8 0 0,0
13.01.2019 11:00:00 9,8 7,5 - - 24 13 50 27 WSW 1014,6 0 0,0
13.01.2019 10:00:00 9,2 6,8 - - 31 17 54 29 WSW 1014,9 0 0,0
13.01.2019 09:00:00 8,9 6,6 6,4 6,7 29 16 46 25 WSW 1015,7 0 0,0

tt = temperature
td = dewpoint
tt -20cm = temperature -20cm
tt -100cm = temperature -100cm
ff = wind speed
fx = gusts
dd = wind direction
ppp = reduced air pressure
sd = sunshine duration
rr = precipitation

Next stations